createdAt,value
2018-05-23T00:00:01.461Z,95434
2018-05-23T00:02:32.800Z,95441
2018-05-23T00:05:04.319Z,95429
2018-05-23T00:07:35.516Z,95430
2018-05-23T00:10:06.779Z,95428
2018-05-23T00:12:37.853Z,95428
2018-05-23T00:15:12.201Z,95435
2018-05-23T00:17:43.458Z,95432
2018-05-23T00:20:14.703Z,95429
2018-05-23T00:22:45.926Z,95430
2018-05-23T00:25:17.556Z,95438
2018-05-23T00:27:48.796Z,95440
2018-05-23T00:30:20.011Z,95436
2018-05-23T00:32:51.374Z,95439
2018-05-23T00:35:22.547Z,95439
2018-05-23T00:37:53.894Z,95440
2018-05-23T00:40:25.457Z,95439
2018-05-23T00:42:56.888Z,95439
2018-05-23T00:45:28.136Z,95435
2018-05-23T00:47:59.345Z,95440
2018-05-23T00:50:31.121Z,95441
2018-05-23T00:53:03.025Z,95438
2018-05-23T00:55:37.028Z,95438
2018-05-23T00:58:09.985Z,95441
2018-05-23T01:00:41.282Z,95441
2018-05-23T01:03:12.385Z,95440
2018-05-23T01:05:43.745Z,95442
2018-05-23T01:08:14.844Z,95439
2018-05-23T01:10:46.174Z,95435
2018-05-23T01:13:17.325Z,95439
2018-05-23T01:15:49.083Z,95441
2018-05-23T01:18:20.285Z,95440
2018-05-23T01:20:51.923Z,95443
2018-05-23T01:23:23.229Z,95442
2018-05-23T01:25:55.439Z,95442
2018-05-23T01:28:26.873Z,95443
2018-05-23T01:30:58.644Z,95441
2018-05-23T01:33:30.120Z,95438
2018-05-23T01:36:01.950Z,95440
2018-05-23T01:38:33.244Z,95442
2018-05-23T01:41:04.759Z,95447
2018-05-23T01:43:36.023Z,95450
2018-05-23T01:46:07.428Z,95449
2018-05-23T01:48:47.089Z,95457
2018-05-23T01:51:18.304Z,95459
2018-05-23T01:53:49.547Z,95459
2018-05-23T01:56:20.764Z,95459
2018-05-23T01:58:52.350Z,95459
2018-05-23T02:01:23.842Z,95455
2018-05-23T02:03:54.988Z,95453
2018-05-23T02:06:27.003Z,95457
2018-05-23T02:08:59.307Z,95460
2018-05-23T02:11:32.895Z,95458
2018-05-23T02:14:04.276Z,95463
2018-05-23T02:16:35.403Z,95459
2018-05-23T02:19:06.504Z,95462
2018-05-23T02:21:37.738Z,95458
2018-05-23T02:24:08.867Z,95463
2018-05-23T02:26:39.953Z,95467
2018-05-23T02:29:11.092Z,95464
2018-05-23T02:31:42.230Z,95462
2018-05-23T02:34:13.297Z,95467
2018-05-23T02:36:45.220Z,95468
2018-05-23T02:39:16.490Z,95465
2018-05-23T02:41:47.695Z,95461
2018-05-23T02:44:18.870Z,95462
2018-05-23T02:46:50.055Z,95461
2018-05-23T02:49:21.088Z,95466
2018-05-23T02:51:52.825Z,95468
2018-05-23T02:54:23.992Z,95470
2018-05-23T02:56:55.663Z,95467
2018-05-23T02:59:26.860Z,95467
2018-05-23T03:01:58.568Z,95466
2018-05-23T03:04:29.781Z,95472
2018-05-23T03:07:01.214Z,95478
2018-05-23T03:09:32.395Z,95477
2018-05-23T03:12:04.677Z,95477
2018-05-23T03:14:36.090Z,95477
2018-05-23T03:17:07.626Z,95483
2018-05-23T03:19:38.774Z,95489
2018-05-23T03:22:10.059Z,95478
2018-05-23T03:24:41.201Z,95479
2018-05-23T03:27:12.458Z,95474
2018-05-23T03:29:43.652Z,95483
2018-05-23T03:32:15.248Z,95489
2018-05-23T03:34:46.412Z,95487
2018-05-23T03:37:18.192Z,95492
2018-05-23T03:39:49.592Z,95485
2018-05-23T03:42:21.023Z,95489
2018-05-23T03:44:52.346Z,95496
2018-05-23T03:47:23.537Z,95499
2018-05-23T03:49:54.752Z,95501
2018-05-23T03:52:25.969Z,95505
2018-05-23T03:54:57.184Z,95504
2018-05-23T03:57:28.505Z,95507
2018-05-23T04:02:08.739Z,95503
2018-05-23T04:04:50.622Z,95510
2018-05-23T04:07:24.565Z,95504
2018-05-23T04:09:56.170Z,95503
2018-05-23T04:12:27.298Z,95502
2018-05-23T04:14:58.693Z,95504
2018-05-23T04:17:29.985Z,95510
2018-05-23T04:20:01.456Z,95514
2018-05-23T04:22:32.707Z,95515
2018-05-23T04:25:07.125Z,95522
2018-05-23T04:27:38.328Z,95520
2018-05-23T04:30:09.601Z,95523
2018-05-23T04:32:40.728Z,95533
2018-05-23T04:35:12.214Z,95534
2018-05-23T04:37:43.529Z,95538
2018-05-23T04:40:18.042Z,95537
2018-05-23T04:42:49.436Z,95539
2018-05-23T04:45:20.772Z,95539
2018-05-23T04:47:52.323Z,95547
2018-05-23T04:50:23.700Z,95549
2018-05-23T04:52:56.073Z,95550
2018-05-23T04:55:28.937Z,95552
2018-05-23T04:58:00.147Z,95561
2018-05-23T05:00:31.877Z,95562
2018-05-23T05:03:04.274Z,95563
2018-05-23T05:05:35.782Z,95566
2018-05-23T05:08:09.355Z,95573
2018-05-23T05:10:41.016Z,95571
2018-05-23T05:13:13.093Z,95569
2018-05-23T05:15:44.356Z,95569
2018-05-23T05:18:15.527Z,95572
2018-05-23T05:20:46.841Z,95571
2018-05-23T05:23:18.058Z,95577
2018-05-23T05:25:49.575Z,95579
2018-05-23T05:28:21.401Z,95588
2018-05-23T05:30:53.097Z,95580
2018-05-23T05:33:24.168Z,95584
2018-05-23T05:35:55.525Z,95582
2018-05-23T05:38:26.933Z,95589
2018-05-23T05:40:58.069Z,95598
2018-05-23T05:43:29.370Z,95604
2018-05-23T05:46:01.140Z,95607
2018-05-23T05:48:32.380Z,95608
2018-05-23T05:51:04.183Z,95598
2018-05-23T05:53:35.827Z,95599
2018-05-23T05:56:07.318Z,95609
2018-05-23T05:58:38.660Z,95610
2018-05-23T06:01:10.204Z,95623
2018-05-23T06:03:41.363Z,95632
2018-05-23T06:06:12.748Z,95627
2018-05-23T06:08:44.018Z,95624
2018-05-23T06:11:15.640Z,95627
2018-05-23T06:13:46.911Z,95632
2018-05-23T06:16:19.409Z,95644
2018-05-23T06:18:50.638Z,95639
2018-05-23T06:21:22.019Z,95640
2018-05-23T06:23:53.251Z,95645
2018-05-23T06:26:25.420Z,95644
2018-05-23T06:28:57.553Z,95642
2018-05-23T06:31:29.106Z,95642
2018-05-23T06:34:00.545Z,95643
2018-05-23T06:36:32.644Z,95642
2018-05-23T06:39:04.412Z,95637
2018-05-23T06:41:36.636Z,95646
2018-05-23T06:44:07.762Z,95647
2018-05-23T06:46:38.922Z,95640
2018-05-23T06:49:10.419Z,95644
2018-05-23T06:51:41.661Z,95643
2018-05-23T06:54:12.877Z,95643
2018-05-23T06:56:44.294Z,95640
2018-05-23T06:59:15.484Z,95642
2018-05-23T07:01:46.847Z,95640
2018-05-23T07:04:18.168Z,95638
2018-05-23T07:06:49.643Z,95646
2018-05-23T07:09:21.300Z,95643
2018-05-23T07:11:53.316Z,95644
2018-05-23T07:14:24.750Z,95651
2018-05-23T07:16:56.251Z,95655
2018-05-23T07:19:27.711Z,95662
2018-05-23T07:22:02.420Z,95662
2018-05-23T07:24:33.524Z,95666
2018-05-23T07:27:06.238Z,95668
2018-05-23T07:29:37.834Z,95667
2018-05-23T07:32:11.317Z,95675
2018-05-23T07:34:42.744Z,95677
2018-05-23T07:37:14.466Z,95683
2018-05-23T07:39:45.818Z,95679
2018-05-23T07:42:17.542Z,95684
2018-05-23T07:44:48.727Z,95688
2018-05-23T07:47:19.883Z,95684
2018-05-23T07:49:51.155Z,95693
2018-05-23T07:52:22.605Z,95694
2018-05-23T07:54:55.216Z,95688
2018-05-23T07:57:27.001Z,95690
2018-05-23T07:59:59.757Z,95688
2018-05-23T08:02:31.349Z,95693
2018-05-23T08:05:02.569Z,95696
2018-05-23T08:07:33.918Z,95696
2018-05-23T08:10:05.503Z,95695
2018-05-23T08:12:37.275Z,95697
2018-05-23T08:15:09.674Z,95705
2018-05-23T08:17:42.010Z,95697
2018-05-23T08:20:13.183Z,95699
2018-05-23T08:22:44.574Z,95691
2018-05-23T08:25:18.045Z,95694
2018-05-23T08:27:49.982Z,95694
2018-05-23T08:30:21.397Z,95692
2018-05-23T08:32:55.475Z,95697
2018-05-23T08:35:30.269Z,95699
2018-05-23T08:38:03.300Z,95699
2018-05-23T08:40:35.838Z,95699
2018-05-23T08:43:08.140Z,95704
2018-05-23T08:45:39.276Z,95704
2018-05-23T08:48:13.537Z,95701
2018-05-23T08:50:45.338Z,95708
2018-05-23T08:53:16.830Z,95711
2018-05-23T08:55:48.101Z,95709
2018-05-23T08:58:19.291Z,95712
2018-05-23T09:00:50.650Z,95717
2018-05-23T09:03:21.859Z,95720
2018-05-23T09:05:52.985Z,95719
2018-05-23T09:08:24.505Z,95722
2018-05-23T09:10:55.758Z,95723
2018-05-23T09:13:27.283Z,95728
2018-05-23T09:15:58.989Z,95724
2018-05-23T09:18:30.379Z,95726
2018-05-23T09:21:01.719Z,95724
2018-05-23T09:23:33.078Z,95727
2018-05-23T09:26:04.197Z,95720
2018-05-23T09:28:35.565Z,95716
2018-05-23T09:31:06.630Z,95715
2018-05-23T09:33:37.941Z,95716
2018-05-23T09:36:09.146Z,95718
2018-05-23T09:38:40.404Z,95719
2018-05-23T09:41:12.762Z,95721
2018-05-23T09:43:44.213Z,95720
2018-05-23T09:46:15.366Z,95721
2018-05-23T09:48:46.940Z,95719
2018-05-23T09:51:18.306Z,95722
2018-05-23T09:53:49.678Z,95722
2018-05-23T09:56:20.866Z,95718
2018-05-23T09:58:52.252Z,95717
2018-05-23T10:01:23.526Z,95716
2018-05-23T10:03:55.017Z,95711
2018-05-23T10:06:26.287Z,95711
2018-05-23T10:08:57.657Z,95710
2018-05-23T10:11:28.944Z,95710
2018-05-23T10:14:00.381Z,95713
2018-05-23T10:16:31.770Z,95717
2018-05-23T10:19:03.046Z,95711
2018-05-23T10:21:34.317Z,95717
2018-05-23T10:24:05.606Z,95717
2018-05-23T10:26:36.944Z,95718
2018-05-23T10:29:08.553Z,95724
2018-05-23T10:31:39.833Z,95723
2018-05-23T10:34:10.952Z,95721
2018-05-23T10:36:42.216Z,95727
2018-05-23T10:39:13.727Z,95725
2018-05-23T10:41:45.182Z,95723
2018-05-23T10:44:17.693Z,95722
2018-05-23T10:46:49.448Z,95723
2018-05-23T10:49:21.624Z,95724
2018-05-23T10:51:52.829Z,95727
2018-05-23T10:54:24.309Z,95725
2018-05-23T10:56:55.505Z,95727
2018-05-23T10:59:26.957Z,95727
2018-05-23T11:01:58.201Z,95725
2018-05-23T11:04:29.553Z,95726
2018-05-23T11:07:00.929Z,95727
2018-05-23T11:09:32.500Z,95733
2018-05-23T11:12:05.012Z,95728
2018-05-23T11:14:37.006Z,95730
2018-05-23T11:17:08.734Z,95726
2018-05-23T11:19:41.087Z,95717
2018-05-23T11:22:12.856Z,95725
2018-05-23T11:24:44.125Z,95713
2018-05-23T11:27:15.372Z,95719
2018-05-23T11:29:47.008Z,95716
2018-05-23T11:32:19.389Z,95708
2018-05-23T11:34:51.233Z,95709
2018-05-23T11:37:24.617Z,95707
2018-05-23T11:39:57.104Z,95702
2018-05-23T11:42:28.553Z,95688
2018-05-23T11:45:00.435Z,95692
2018-05-23T11:47:32.395Z,95686
2018-05-23T11:50:05.101Z,95687
2018-05-23T11:52:36.864Z,95680
2018-05-23T11:55:11.441Z,95674
2018-05-23T11:57:43.018Z,95672
2018-05-23T12:00:14.812Z,95670
2018-05-23T12:02:46.872Z,95672
2018-05-23T12:05:18.130Z,95670
2018-05-23T12:07:49.967Z,95668
2018-05-23T12:10:21.840Z,95665
2018-05-23T12:12:53.461Z,95667
2018-05-23T12:15:26.351Z,95666
2018-05-23T12:17:59.519Z,95667
2018-05-23T12:20:35.311Z,95660
2018-05-23T12:23:07.376Z,95662
2018-05-23T12:25:40.547Z,95660
2018-05-23T12:28:12.528Z,95660
2018-05-23T12:30:44.416Z,95655
2018-05-23T12:33:15.993Z,95656
2018-05-23T12:35:47.421Z,95658
2018-05-23T12:38:19.071Z,95667
2018-05-23T12:40:50.753Z,95661
2018-05-23T12:43:23.528Z,95665
2018-05-23T12:45:54.794Z,95660
2018-05-23T12:48:26.507Z,95661
2018-05-23T12:50:57.894Z,95660
2018-05-23T12:53:29.527Z,95657
2018-05-23T12:56:00.984Z,95660
2018-05-23T12:58:32.334Z,95665
2018-05-23T13:01:03.964Z,95657
2018-05-23T13:03:40.569Z,95661
2018-05-23T13:06:12.021Z,95657
2018-05-23T13:08:43.381Z,95657
2018-05-23T13:11:14.583Z,95656
2018-05-23T13:13:46.400Z,95666
2018-05-23T13:16:18.436Z,95665
2018-05-23T13:18:50.616Z,95668
2018-05-23T13:21:22.793Z,95676
2018-05-23T13:23:54.147Z,95685
2018-05-23T13:26:25.432Z,95694
2018-05-23T13:28:57.420Z,95695
2018-05-23T13:31:29.714Z,95706
2018-05-23T13:34:02.569Z,95708
2018-05-23T13:36:33.937Z,95718
2018-05-23T13:39:05.921Z,95727
2018-05-23T13:41:37.474Z,95725
2018-05-23T13:44:08.905Z,95734
2018-05-23T13:46:40.326Z,95731
2018-05-23T13:49:11.859Z,95729
2018-05-23T13:51:43.349Z,95741
2018-05-23T13:54:14.810Z,95739
2018-05-23T13:56:46.027Z,95747
2018-05-23T13:59:17.384Z,95746
2018-05-23T14:01:48.613Z,95749
2018-05-23T14:04:19.765Z,95753
2018-05-23T14:06:52.100Z,95757
2018-05-23T14:09:23.392Z,95752
2018-05-23T14:11:54.597Z,95748
2018-05-23T14:14:26.000Z,95746
2018-05-23T14:16:57.452Z,95739
2018-05-23T14:19:28.749Z,95733
2018-05-23T14:21:59.936Z,95729
2018-05-23T14:24:31.697Z,95723
2018-05-23T14:27:02.969Z,95717
2018-05-23T14:29:34.376Z,95709
2018-05-23T14:32:05.729Z,95713
2018-05-23T14:34:36.970Z,95714
2018-05-23T14:37:08.517Z,95724
2018-05-23T14:39:39.831Z,95727
2018-05-23T14:42:11.245Z,95735
2018-05-23T14:44:42.754Z,95734
2018-05-23T14:47:14.260Z,95739
2018-05-23T14:49:45.703Z,95740
2018-05-23T14:52:17.072Z,95738
2018-05-23T14:54:48.356Z,95733
2018-05-23T14:57:20.447Z,95737
2018-05-23T14:59:53.761Z,95737
2018-05-23T15:02:27.613Z,95745
2018-05-23T15:05:06.970Z,95755
2018-05-23T15:07:40.370Z,95754
2018-05-23T15:10:15.633Z,95767
2018-05-23T15:12:48.510Z,95766
2018-05-23T15:15:21.960Z,95766
2018-05-23T15:17:55.340Z,95764
2018-05-23T15:20:31.987Z,95754
2018-05-23T15:23:06.570Z,95754
2018-05-23T15:25:38.926Z,95746
2018-05-23T15:28:19.719Z,95742
2018-05-23T15:30:53.731Z,95738
2018-05-23T15:33:29.995Z,95746
2018-05-23T15:36:04.623Z,95752
2018-05-23T15:38:39.364Z,95756
2018-05-23T15:41:13.488Z,95759
2018-05-23T15:43:49.134Z,95763
2018-05-23T15:46:27.333Z,95764
2018-05-23T15:49:00.721Z,95765
2018-05-23T15:51:34.408Z,95762
2018-05-23T15:54:09.662Z,95764
2018-05-23T15:56:43.122Z,95762
2018-05-23T15:59:19.594Z,95765
2018-05-23T16:01:53.650Z,95766
2018-05-23T16:04:28.321Z,95775
2018-05-23T16:07:02.781Z,95783
2018-05-23T16:09:38.385Z,95791
2018-05-23T16:12:13.391Z,95788
2018-05-23T16:14:48.916Z,95796
2018-05-23T16:17:22.564Z,95795
2018-05-23T16:20:04.830Z,95798
2018-05-23T16:22:48.894Z,95799
2018-05-23T16:25:21.592Z,95803
2018-05-23T16:27:58.458Z,95806
2018-05-23T16:30:33.668Z,95805
2018-05-23T16:33:07.179Z,95814
2018-05-23T16:35:41.174Z,95812
2018-05-23T16:38:15.078Z,95811
2018-05-23T16:40:49.841Z,95825
2018-05-23T16:43:22.536Z,95822
2018-05-23T16:45:56.333Z,95823
2018-05-23T16:48:29.550Z,95839
2018-05-23T16:51:03.022Z,95835
2018-05-23T16:53:35.346Z,95829
2018-05-23T16:56:09.732Z,95839
2018-05-23T16:58:42.141Z,95841
2018-05-23T17:01:14.851Z,95841
2018-05-23T17:03:47.537Z,95843
2018-05-23T17:06:19.691Z,95843
2018-05-23T17:08:52.618Z,95845
2018-05-23T17:11:24.772Z,95846
2018-05-23T17:14:00.783Z,95850
2018-05-23T17:16:37.213Z,95853
2018-05-23T17:19:12.031Z,95844
2018-05-23T17:21:44.840Z,95840
2018-05-23T17:24:17.343Z,95837
2018-05-23T17:26:49.726Z,95842
2018-05-23T17:29:22.905Z,95844
2018-05-23T17:31:54.940Z,95839
2018-05-23T17:34:29.422Z,95837
2018-05-23T17:37:01.951Z,95836
2018-05-23T17:39:34.906Z,95836
2018-05-23T17:42:09.849Z,95836
2018-05-23T17:44:46.342Z,95842
2018-05-23T17:47:19.289Z,95843
2018-05-23T17:49:52.865Z,95852
2018-05-23T17:52:25.799Z,95847
2018-05-23T17:54:58.535Z,95849
2018-05-23T17:57:32.135Z,95844
2018-05-23T18:00:05.657Z,95846
2018-05-23T18:02:39.186Z,95848
2018-05-23T18:05:14.431Z,95850
2018-05-23T18:07:47.325Z,95855
2018-05-23T18:10:21.110Z,95855
2018-05-23T18:12:53.981Z,95858
2018-05-23T18:15:29.719Z,95856
2018-05-23T18:18:05.621Z,95847
2018-05-23T18:20:41.935Z,95856
2018-05-23T18:23:13.767Z,95850
2018-05-23T18:25:51.817Z,95844
2018-05-23T18:28:24.846Z,95836
2018-05-23T18:30:57.205Z,95831
2018-05-23T18:33:31.611Z,95837
2018-05-23T18:36:04.553Z,95837
2018-05-23T18:38:36.563Z,95835
2018-05-23T18:41:09.403Z,95844
2018-05-23T18:43:41.987Z,95848
2018-05-23T18:46:16.329Z,95855
2018-05-23T18:48:52.406Z,95850
2018-05-23T18:51:27.111Z,95858
2018-05-23T18:54:01.534Z,95859
2018-05-23T18:56:34.707Z,95859
2018-05-23T18:59:09.016Z,95869
2018-05-23T19:01:42.030Z,95872
2018-05-23T19:04:15.350Z,95870
2018-05-23T19:06:47.983Z,95879
2018-05-23T19:09:23.210Z,95883
2018-05-23T19:11:56.821Z,95880
2018-05-23T19:14:28.989Z,95878
2018-05-23T19:17:03.462Z,95874
2018-05-23T19:19:36.981Z,95867
2018-05-23T19:22:11.006Z,95866
2018-05-23T19:24:45.520Z,95866
2018-05-23T19:27:20.519Z,95896
2018-05-23T19:29:56.039Z,95907
2018-05-23T19:32:29.436Z,95899
2018-05-23T19:35:06.489Z,95890
2018-05-23T19:37:39.797Z,95891
2018-05-23T19:40:12.972Z,95877
2018-05-23T19:42:47.667Z,95878
2018-05-23T19:45:22.406Z,95874
2018-05-23T19:47:56.313Z,95869
2018-05-23T19:50:33.894Z,95868
2018-05-23T19:53:11.226Z,95867
2018-05-23T19:55:45.934Z,95875
2018-05-23T19:58:19.901Z,95867
2018-05-23T20:00:57.635Z,95868
2018-05-23T20:03:32.869Z,95873
2018-05-23T20:06:07.491Z,95872
2018-05-23T20:08:42.371Z,95868
2018-05-23T20:11:14.468Z,95864
2018-05-23T20:13:48.223Z,95867
2018-05-23T20:16:28.141Z,95866
2018-05-23T20:19:03.097Z,95871
2018-05-23T20:21:36.952Z,95870
2018-05-23T20:24:10.252Z,95877
2018-05-23T20:26:43.743Z,95884
2018-05-23T20:29:20.970Z,95878
2018-05-23T20:31:55.520Z,95873
2018-05-23T20:34:28.428Z,95859
2018-05-23T20:37:01.654Z,95855
2018-05-23T20:39:35.494Z,95851
2018-05-23T20:42:08.228Z,95853
2018-05-23T20:44:45.684Z,95852
2018-05-23T20:47:19.543Z,95845
2018-05-23T20:49:54.118Z,95843
2018-05-23T20:52:27.446Z,95844
2018-05-23T20:54:59.186Z,95841
2018-05-23T20:57:30.367Z,95840
2018-05-23T21:00:01.565Z,95844
2018-05-23T21:02:33.033Z,95841
2018-05-23T21:05:04.513Z,95843
2018-05-23T21:07:35.812Z,95847
2018-05-23T21:10:07.106Z,95845
2018-05-23T21:12:38.310Z,95849
2018-05-23T21:15:09.354Z,95852
2018-05-23T21:17:40.800Z,95858
2018-05-23T21:20:12.053Z,95855
2018-05-23T21:22:45.330Z,95853
2018-05-23T21:25:16.693Z,95852
2018-05-23T21:27:49.639Z,95853
2018-05-23T21:30:20.887Z,95855
2018-05-23T21:32:52.030Z,95851
2018-05-23T21:35:24.261Z,95854
2018-05-23T21:37:55.558Z,95853
2018-05-23T21:40:27.362Z,95853
2018-05-23T21:42:58.552Z,95851
2018-05-23T21:45:29.931Z,95859
2018-05-23T21:48:01.218Z,95855
2018-05-23T21:50:32.392Z,95855
2018-05-23T21:53:03.740Z,95849
2018-05-23T21:55:34.921Z,95853
2018-05-23T21:58:06.324Z,95857
2018-05-23T22:00:37.449Z,95852
2018-05-23T22:03:09.506Z,95859
2018-05-23T22:05:41.013Z,95859
2018-05-23T22:08:12.122Z,95854
2018-05-23T22:10:43.528Z,95858
2018-05-23T22:13:14.650Z,95853
2018-05-23T22:15:46.239Z,95854
2018-05-23T22:18:17.504Z,95857
2018-05-23T22:20:48.736Z,95861
2018-05-23T22:23:20.007Z,95867
2018-05-23T22:25:51.421Z,95863
2018-05-23T22:28:22.724Z,95865
2018-05-23T22:30:54.114Z,95878
2018-05-23T22:33:25.444Z,95874
2018-05-23T22:35:57.058Z,95874
2018-05-23T22:38:28.321Z,95869
2018-05-23T22:40:59.672Z,95869
2018-05-23T22:43:31.529Z,95867
2018-05-23T22:46:02.933Z,95873
2018-05-23T22:48:34.286Z,95869
2018-05-23T22:51:05.688Z,95865
2018-05-23T22:53:36.945Z,95862
2018-05-23T22:56:08.195Z,95864
2018-05-23T22:58:39.534Z,95859
2018-05-23T23:01:10.669Z,95864
2018-05-23T23:03:42.064Z,95869
2018-05-23T23:06:13.478Z,95870
2018-05-23T23:08:44.724Z,95866
2018-05-23T23:11:15.960Z,95865
2018-05-23T23:13:48.333Z,95868
2018-05-23T23:16:19.576Z,95864
2018-05-23T23:18:50.836Z,95873
2018-05-23T23:21:22.104Z,95872
2018-05-23T23:23:53.397Z,95870
2018-05-23T23:26:25.889Z,95868
2018-05-23T23:28:57.155Z,95875
2018-05-23T23:31:28.275Z,95871
2018-05-23T23:33:59.549Z,95870
2018-05-23T23:36:31.880Z,95869
2018-05-23T23:39:03.652Z,95866
2018-05-23T23:41:35.054Z,95860
2018-05-23T23:44:06.145Z,95865
2018-05-23T23:46:37.409Z,95872
2018-05-23T23:49:08.832Z,95871
2018-05-23T23:51:39.992Z,95870
2018-05-23T23:54:11.116Z,95874
2018-05-23T23:56:42.629Z,95867
2018-05-23T23:59:13.804Z,95872
